createdAt,value
2018-12-31T00:01:56.039Z,4.60
2018-12-31T00:04:24.156Z,4.50
2018-12-31T00:06:52.103Z,4.50
2018-12-31T00:09:19.972Z,4.40
2018-12-31T00:11:47.856Z,4.40
2018-12-31T00:14:15.774Z,4.40
2018-12-31T00:16:43.922Z,4.40
2018-12-31T00:19:11.808Z,4.50
2018-12-31T00:21:39.691Z,4.50
2018-12-31T00:24:07.579Z,4.50
2018-12-31T00:26:35.455Z,4.50
2018-12-31T00:29:03.799Z,4.40
2018-12-31T00:31:31.930Z,4.40
2018-12-31T00:34:00.026Z,4.40
2018-12-31T00:36:28.331Z,4.40
2018-12-31T00:38:56.301Z,4.50
2018-12-31T00:41:24.777Z,4.60
2018-12-31T00:43:53.280Z,4.60
2018-12-31T00:46:21.280Z,4.60
2018-12-31T00:48:49.549Z,4.60
2018-12-31T00:51:18.106Z,4.70
2018-12-31T00:53:45.984Z,4.70
2018-12-31T00:56:14.145Z,4.70
2018-12-31T00:58:42.039Z,4.70
2018-12-31T01:01:10.177Z,4.70
2018-12-31T01:03:38.060Z,4.70
2018-12-31T01:06:05.937Z,4.70
2018-12-31T01:08:33.819Z,4.70
2018-12-31T01:11:01.869Z,4.70
2018-12-31T01:13:29.813Z,4.60
2018-12-31T01:15:57.705Z,4.60
2018-12-31T01:18:26.045Z,4.60
2018-12-31T01:20:54.534Z,4.60
2018-12-31T01:23:22.706Z,4.50
2018-12-31T01:25:50.575Z,4.50
2018-12-31T01:28:18.698Z,4.50
2018-12-31T01:30:46.616Z,4.50
2018-12-31T01:33:14.496Z,4.50
2018-12-31T01:35:42.380Z,4.50
2018-12-31T01:38:10.284Z,4.50
2018-12-31T01:40:38.213Z,4.50
2018-12-31T01:43:06.381Z,4.50
2018-12-31T01:45:34.456Z,4.50
2018-12-31T01:48:02.584Z,4.50
2018-12-31T01:50:30.853Z,4.50
2018-12-31T01:52:58.748Z,4.50
2018-12-31T01:55:26.640Z,4.60
2018-12-31T01:57:54.621Z,4.70
2018-12-31T02:00:22.805Z,4.70
2018-12-31T02:02:51.740Z,4.70
2018-12-31T02:05:19.669Z,4.70
2018-12-31T02:07:47.864Z,4.70
2018-12-31T02:10:16.375Z,4.80
2018-12-31T02:12:44.320Z,4.80
2018-12-31T02:15:12.578Z,4.80
2018-12-31T02:17:40.728Z,4.80
2018-12-31T02:20:08.766Z,4.80
2018-12-31T02:22:36.874Z,4.90
2018-12-31T02:25:04.881Z,4.90
2018-12-31T02:27:32.834Z,5.00
2018-12-31T02:30:01.273Z,5.00
2018-12-31T02:32:29.479Z,5.00
2018-12-31T02:34:57.378Z,5.00
2018-12-31T02:37:25.555Z,5.00
2018-12-31T02:39:53.485Z,5.00
2018-12-31T02:42:21.811Z,5.00
2018-12-31T02:44:50.022Z,5.00
2018-12-31T02:47:18.173Z,5.00
2018-12-31T02:49:46.058Z,5.00
2018-12-31T02:52:13.940Z,5.00
2018-12-31T02:54:41.810Z,5.00
2018-12-31T02:57:09.690Z,5.00
2018-12-31T02:59:37.579Z,5.00
2018-12-31T03:02:05.462Z,5.00
2018-12-31T03:04:33.608Z,5.00
2018-12-31T03:07:01.549Z,5.00
2018-12-31T03:09:29.680Z,5.00
2018-12-31T03:11:57.799Z,5.00
2018-12-31T03:14:25.682Z,5.00
2018-12-31T03:16:53.573Z,4.90
2018-12-31T03:19:21.460Z,4.90
2018-12-31T03:21:49.511Z,4.90
2018-12-31T03:24:17.379Z,4.90
2018-12-31T03:26:45.436Z,4.90
2018-12-31T03:29:13.547Z,4.90
2018-12-31T03:31:41.915Z,5.00
2018-12-31T03:34:10.014Z,4.90
2018-12-31T03:36:38.231Z,5.00
2018-12-31T03:39:06.696Z,5.00
2018-12-31T03:41:34.573Z,5.00
2018-12-31T03:44:02.460Z,5.00
2018-12-31T03:46:30.504Z,5.10
2018-12-31T03:48:58.514Z,5.10
2018-12-31T03:51:26.395Z,5.10
2018-12-31T03:53:54.484Z,5.10
2018-12-31T03:56:22.931Z,5.10
2018-12-31T03:58:51.074Z,5.00
2018-12-31T04:01:19.560Z,5.10
2018-12-31T04:03:47.898Z,5.10
2018-12-31T04:06:16.277Z,5.10
2018-12-31T04:08:44.258Z,5.10
2018-12-31T04:11:12.436Z,5.10
2018-12-31T04:13:40.633Z,5.10
2018-12-31T04:16:08.697Z,5.00
2018-12-31T04:18:36.605Z,5.10
2018-12-31T04:21:05.118Z,5.10
2018-12-31T04:23:33.287Z,5.10
2018-12-31T04:26:01.159Z,5.10
2018-12-31T04:28:29.049Z,5.10
2018-12-31T04:30:57.522Z,5.10
2018-12-31T04:33:25.392Z,5.10
2018-12-31T04:35:53.417Z,5.10
2018-12-31T04:38:21.571Z,5.10
2018-12-31T04:40:49.721Z,5.10
2018-12-31T04:43:17.741Z,5.10
2018-12-31T04:45:45.894Z,5.00
2018-12-31T04:48:13.773Z,5.00
2018-12-31T04:50:41.961Z,5.00
2018-12-31T04:53:10.094Z,5.10
2018-12-31T04:55:44.169Z,5.10
2018-12-31T04:58:07.951Z,5.10
2018-12-31T05:00:36.362Z,5.10
2018-12-31T05:03:04.616Z,5.20
2018-12-31T05:05:32.472Z,5.10
2018-12-31T05:08:00.389Z,5.10
2018-12-31T05:10:28.269Z,5.10
2018-12-31T05:12:56.153Z,5.10
2018-12-31T05:15:24.043Z,5.10
2018-12-31T05:17:52.258Z,5.10
2018-12-31T05:20:20.454Z,5.20
2018-12-31T05:22:48.438Z,5.10
2018-12-31T05:25:16.934Z,5.20
2018-12-31T05:27:45.337Z,5.20
2018-12-31T05:30:13.256Z,5.20
2018-12-31T05:32:41.413Z,5.20
2018-12-31T05:35:09.374Z,5.20
2018-12-31T05:37:37.612Z,5.20
2018-12-31T05:40:05.890Z,5.20
2018-12-31T05:42:34.037Z,5.20
2018-12-31T05:45:02.248Z,5.20
2018-12-31T05:47:30.413Z,5.20
2018-12-31T05:49:58.708Z,5.20
2018-12-31T05:52:26.690Z,5.30
2018-12-31T05:54:54.797Z,5.30
2018-12-31T05:57:23.224Z,5.30
2018-12-31T05:59:51.106Z,5.40
2018-12-31T06:02:19.003Z,5.30
2018-12-31T06:04:47.309Z,5.40
2018-12-31T06:07:15.180Z,5.40
2018-12-31T06:09:46.508Z,5.30
2018-12-31T06:12:17.864Z,5.30
2018-12-31T06:14:46.136Z,5.30
2018-12-31T06:17:14.306Z,5.40
2018-12-31T06:19:42.479Z,5.30
2018-12-31T06:22:10.441Z,5.30
2018-12-31T06:24:38.410Z,5.30
2018-12-31T06:27:06.279Z,5.30
2018-12-31T06:29:34.173Z,5.20
2018-12-31T06:32:02.099Z,5.20
2018-12-31T06:34:30.136Z,5.20
2018-12-31T06:36:58.075Z,5.20
2018-12-31T06:39:26.053Z,5.20
2018-12-31T06:41:54.285Z,5.20
2018-12-31T06:44:23.505Z,5.20
2018-12-31T06:46:51.461Z,5.20
2018-12-31T06:49:19.628Z,5.30
2018-12-31T06:51:47.965Z,5.30
2018-12-31T06:54:15.851Z,5.30
2018-12-31T06:56:44.120Z,5.30
2018-12-31T06:59:12.005Z,5.30
2018-12-31T07:01:40.178Z,5.30
2018-12-31T07:04:08.253Z,5.30
2018-12-31T07:06:36.233Z,5.20
2018-12-31T07:09:05.705Z,5.20
2018-12-31T07:11:33.795Z,5.20
2018-12-31T07:14:01.677Z,5.20
2018-12-31T07:16:29.548Z,5.20
2018-12-31T07:18:57.601Z,5.20
2018-12-31T07:21:25.741Z,5.20
2018-12-31T07:23:53.621Z,5.20
2018-12-31T07:26:21.588Z,5.20
2018-12-31T07:28:49.459Z,5.20
2018-12-31T07:31:17.411Z,5.20
2018-12-31T07:33:46.394Z,5.30
2018-12-31T07:36:14.572Z,5.30
2018-12-31T07:38:42.821Z,5.30
2018-12-31T07:41:11.022Z,5.30
2018-12-31T07:43:39.261Z,5.30
2018-12-31T07:46:07.260Z,5.30
2018-12-31T07:48:35.417Z,5.30
2018-12-31T07:51:03.555Z,5.30
2018-12-31T07:53:31.463Z,5.30
2018-12-31T07:55:59.346Z,5.40
2018-12-31T07:58:27.331Z,5.50
2018-12-31T08:00:55.466Z,5.40
2018-12-31T08:03:23.719Z,5.40
2018-12-31T08:05:51.800Z,5.50
2018-12-31T08:08:19.775Z,5.50
2018-12-31T08:10:47.652Z,5.50
2018-12-31T08:13:15.951Z,5.50
2018-12-31T08:15:44.405Z,5.60
2018-12-31T08:18:12.293Z,5.60
2018-12-31T08:20:40.644Z,5.70
2018-12-31T08:23:08.814Z,5.70
2018-12-31T08:25:37.632Z,5.70
2018-12-31T08:28:05.529Z,5.70
2018-12-31T08:30:33.490Z,5.80
2018-12-31T08:33:03.392Z,5.80
2018-12-31T08:35:31.320Z,5.90
2018-12-31T08:38:00.280Z,6.00
2018-12-31T08:40:28.274Z,6.00
2018-12-31T08:42:56.183Z,6.10
2018-12-31T08:45:24.095Z,6.10
2018-12-31T08:47:51.973Z,6.10
2018-12-31T08:50:20.029Z,6.10
2018-12-31T08:52:47.922Z,6.10
2018-12-31T08:55:15.868Z,6.10
2018-12-31T08:57:43.782Z,6.10
2018-12-31T09:00:11.670Z,6.00
2018-12-31T09:02:39.568Z,6.00
2018-12-31T09:05:07.524Z,6.00
2018-12-31T09:07:35.508Z,6.00
2018-12-31T09:10:03.841Z,6.00
2018-12-31T09:12:31.909Z,6.00
2018-12-31T09:14:59.812Z,6.00
2018-12-31T09:17:27.683Z,6.10
2018-12-31T09:19:55.571Z,6.10
2018-12-31T09:22:52.778Z,6.10
2018-12-31T09:25:14.981Z,6.20
2018-12-31T09:27:42.866Z,6.20
2018-12-31T09:30:10.888Z,6.20
2018-12-31T09:32:38.809Z,6.30
2018-12-31T09:35:06.880Z,6.20
2018-12-31T09:37:34.969Z,6.30
2018-12-31T09:40:02.888Z,6.30
2018-12-31T09:42:30.775Z,6.30
2018-12-31T09:44:58.808Z,6.30
2018-12-31T09:47:26.762Z,6.40
2018-12-31T09:49:54.686Z,6.40
2018-12-31T09:52:22.775Z,6.50
2018-12-31T09:54:50.645Z,6.50
2018-12-31T09:57:28.656Z,6.50
2018-12-31T09:59:56.607Z,6.60
2018-12-31T10:02:24.636Z,6.70
2018-12-31T10:04:52.690Z,6.70
2018-12-31T10:07:20.577Z,6.80
2018-12-31T10:09:48.967Z,6.90
2018-12-31T10:12:17.020Z,7.00
2018-12-31T10:14:45.161Z,7.10
2018-12-31T10:17:13.088Z,7.10
2018-12-31T10:19:41.244Z,7.20
2018-12-31T10:22:09.209Z,7.20
2018-12-31T10:24:37.170Z,7.30
2018-12-31T10:27:05.148Z,7.40
2018-12-31T10:29:36.137Z,7.60
2018-12-31T10:32:02.717Z,7.70
2018-12-31T10:34:30.668Z,7.70
2018-12-31T10:36:58.569Z,7.70
2018-12-31T10:39:26.514Z,7.70
2018-12-31T10:41:55.053Z,7.60
2018-12-31T10:44:23.733Z,7.70
2018-12-31T10:46:51.652Z,7.70
2018-12-31T10:49:19.540Z,7.80
2018-12-31T10:51:47.480Z,7.80
2018-12-31T10:54:15.425Z,7.90
2018-12-31T10:56:43.424Z,7.80
2018-12-31T10:59:11.306Z,7.80
2018-12-31T11:01:39.220Z,7.80
2018-12-31T11:04:07.280Z,7.80
2018-12-31T11:06:35.285Z,7.80
2018-12-31T11:09:03.274Z,7.90
2018-12-31T11:11:33.907Z,7.90
2018-12-31T11:14:02.244Z,8.00
2018-12-31T11:16:30.150Z,8.10
2018-12-31T11:18:58.083Z,8.10
2018-12-31T11:21:26.002Z,8.10
2018-12-31T11:23:53.967Z,8.10
2018-12-31T11:26:21.843Z,8.10
2018-12-31T11:28:49.761Z,8.20
2018-12-31T11:31:17.642Z,8.30
2018-12-31T11:33:45.568Z,8.40
2018-12-31T11:36:13.837Z,8.60
2018-12-31T11:38:41.880Z,8.70
2018-12-31T11:41:09.867Z,8.90
2018-12-31T11:43:37.903Z,9.00
2018-12-31T11:46:06.249Z,9.10
2018-12-31T11:48:34.125Z,9.20
2018-12-31T11:51:02.011Z,9.20
2018-12-31T11:53:30.216Z,9.10
2018-12-31T11:55:58.250Z,9.00
2018-12-31T11:58:26.128Z,9.10
2018-12-31T12:00:54.213Z,9.20
2018-12-31T12:03:22.086Z,9.40
2018-12-31T12:05:50.121Z,9.60
2018-12-31T12:08:18.249Z,9.70
2018-12-31T12:10:46.233Z,9.90
2018-12-31T12:13:14.188Z,9.90
2018-12-31T12:15:42.558Z,9.90
2018-12-31T12:18:10.443Z,9.90
2018-12-31T12:20:38.357Z,10.00
2018-12-31T12:23:06.365Z,10.30
2018-12-31T12:25:34.260Z,10.50
2018-12-31T12:28:02.524Z,10.70
2018-12-31T12:30:30.446Z,10.90
2018-12-31T12:32:58.405Z,11.10
2018-12-31T12:35:26.430Z,11.20
2018-12-31T12:37:54.434Z,11.20
2018-12-31T12:40:23.262Z,11.10
2018-12-31T12:42:51.514Z,11.00
2018-12-31T12:45:19.542Z,10.80
2018-12-31T12:47:47.625Z,10.70
2018-12-31T12:50:15.943Z,10.60
2018-12-31T12:52:43.841Z,10.50
2018-12-31T12:55:12.584Z,10.30
2018-12-31T12:57:40.922Z,10.30
2018-12-31T13:00:09.253Z,10.20
2018-12-31T13:02:41.546Z,10.10
2018-12-31T13:05:10.418Z,10.00
2018-12-31T13:07:39.736Z,9.80
2018-12-31T13:10:09.280Z,9.80
2018-12-31T13:12:38.530Z,9.80
2018-12-31T13:15:07.621Z,9.80
2018-12-31T13:17:36.729Z,9.80
2018-12-31T13:20:05.964Z,9.70
2018-12-31T13:22:35.202Z,9.70
2018-12-31T13:25:04.935Z,9.60
2018-12-31T13:27:33.729Z,9.50
2018-12-31T13:30:02.526Z,9.30
2018-12-31T13:32:31.745Z,9.30
2018-12-31T13:35:00.725Z,9.20
2018-12-31T13:37:29.521Z,9.00
2018-12-31T13:39:58.334Z,8.90
2018-12-31T13:42:27.202Z,8.70
2018-12-31T13:44:56.003Z,8.60
2018-12-31T13:47:24.874Z,8.50
2018-12-31T13:49:53.652Z,8.50
2018-12-31T13:52:22.518Z,8.40
2018-12-31T13:54:51.305Z,8.30
2018-12-31T13:57:20.109Z,8.40
2018-12-31T13:59:48.962Z,8.30
2018-12-31T14:02:17.759Z,8.20
2018-12-31T14:04:46.549Z,8.20
2018-12-31T14:07:15.690Z,8.30
2018-12-31T14:09:44.537Z,8.30
2018-12-31T14:12:13.348Z,8.30
2018-12-31T14:14:42.458Z,8.30
2018-12-31T14:17:11.275Z,8.30
2018-12-31T14:19:40.197Z,8.30
2018-12-31T14:22:08.988Z,8.30
2018-12-31T14:24:38.120Z,8.30
2018-12-31T14:27:07.041Z,8.20
2018-12-31T14:29:35.944Z,8.20
2018-12-31T14:32:05.086Z,8.20
2018-12-31T14:34:33.928Z,8.10
2018-12-31T14:37:02.911Z,8.10
2018-12-31T14:39:31.976Z,8.00
2018-12-31T14:42:01.082Z,8.00
2018-12-31T14:44:30.029Z,7.90
2018-12-31T14:46:59.276Z,7.90
2018-12-31T14:49:28.150Z,7.90
2018-12-31T14:51:57.021Z,7.80
2018-12-31T14:54:25.823Z,7.80
2018-12-31T14:56:54.920Z,7.70
2018-12-31T14:59:23.756Z,7.70
2018-12-31T15:01:52.829Z,7.70
2018-12-31T15:04:21.629Z,7.60
2018-12-31T15:06:50.423Z,7.60
2018-12-31T15:09:19.224Z,7.60
2018-12-31T15:11:48.418Z,7.60
2018-12-31T15:14:17.563Z,7.50
2018-12-31T15:16:46.332Z,7.50
2018-12-31T15:19:15.300Z,7.40
2018-12-31T15:21:44.149Z,7.40
2018-12-31T15:24:13.461Z,7.40
2018-12-31T15:26:42.597Z,7.30
2018-12-31T15:29:11.513Z,7.30
2018-12-31T15:31:40.466Z,7.30
2018-12-31T15:34:09.444Z,7.30
2018-12-31T15:36:38.634Z,7.30
2018-12-31T15:39:07.616Z,7.20
2018-12-31T15:41:36.439Z,7.20
2018-12-31T15:44:05.237Z,7.20
2018-12-31T15:46:34.015Z,7.20
2018-12-31T15:49:02.820Z,7.10
2018-12-31T15:51:31.648Z,7.10
2018-12-31T15:54:00.827Z,7.10
2018-12-31T15:56:30.276Z,7.00
2018-12-31T15:58:59.267Z,7.00
2018-12-31T16:01:28.429Z,6.90
2018-12-31T16:03:57.942Z,6.90
2018-12-31T16:06:26.792Z,6.90
2018-12-31T16:08:55.588Z,6.90
2018-12-31T16:11:24.610Z,6.90
2018-12-31T16:13:53.784Z,6.90
2018-12-31T16:16:22.557Z,6.90
2018-12-31T16:18:51.354Z,6.90
2018-12-31T16:21:20.378Z,6.90
2018-12-31T16:23:49.631Z,6.90
2018-12-31T16:26:18.937Z,6.90
2018-12-31T16:28:48.241Z,6.90
2018-12-31T16:31:18.656Z,6.90
2018-12-31T16:33:48.022Z,6.90
2018-12-31T16:36:17.338Z,6.90
2018-12-31T16:38:46.128Z,6.90
2018-12-31T16:41:14.901Z,7.00
2018-12-31T16:43:44.415Z,6.90
2018-12-31T16:46:13.497Z,6.90
2018-12-31T16:48:42.313Z,6.90
2018-12-31T16:51:11.742Z,6.90
2018-12-31T16:53:40.621Z,6.90
2018-12-31T16:56:09.446Z,7.00
2018-12-31T16:58:38.623Z,7.00
2018-12-31T17:01:07.415Z,6.90
2018-12-31T17:03:36.914Z,7.00
2018-12-31T17:06:06.159Z,7.00
2018-12-31T17:08:35.006Z,7.00
2018-12-31T17:11:03.823Z,7.00
2018-12-31T17:13:32.700Z,6.90
2018-12-31T17:16:01.566Z,6.90
2018-12-31T17:18:30.374Z,6.90
2018-12-31T17:20:59.158Z,6.90
2018-12-31T17:23:28.262Z,6.90
2018-12-31T17:25:58.498Z,6.90
2018-12-31T17:28:27.680Z,6.90
2018-12-31T17:30:56.488Z,6.90
2018-12-31T17:33:25.315Z,6.90
2018-12-31T17:35:54.149Z,6.90
2018-12-31T17:38:22.949Z,6.90
2018-12-31T17:40:51.747Z,6.90
2018-12-31T17:43:20.605Z,6.90
2018-12-31T17:45:49.790Z,6.90
2018-12-31T17:48:18.561Z,6.80
2018-12-31T17:50:47.767Z,6.80
2018-12-31T17:53:16.544Z,6.80
2018-12-31T17:55:45.369Z,6.80
2018-12-31T17:58:14.143Z,6.70
2018-12-31T18:00:43.233Z,6.70
2018-12-31T18:03:12.018Z,6.70
2018-12-31T18:05:41.444Z,6.70
2018-12-31T18:08:10.586Z,6.70
2018-12-31T18:10:39.471Z,6.60
2018-12-31T18:13:08.257Z,6.60
2018-12-31T18:15:37.069Z,6.60
2018-12-31T18:18:05.856Z,6.60
2018-12-31T18:20:35.538Z,6.50
2018-12-31T18:23:04.636Z,6.50
2018-12-31T18:25:33.457Z,6.50
2018-12-31T18:28:02.700Z,6.50
2018-12-31T18:30:31.507Z,6.50
2018-12-31T18:33:00.298Z,6.50
2018-12-31T18:35:29.410Z,6.40
2018-12-31T18:37:58.173Z,6.40
2018-12-31T18:40:27.224Z,6.40
2018-12-31T18:42:56.079Z,6.50
2018-12-31T18:45:25.241Z,6.50
2018-12-31T18:47:54.029Z,6.50
2018-12-31T18:50:23.509Z,6.50
2018-12-31T18:52:52.636Z,6.50
2018-12-31T18:55:21.434Z,6.50
2018-12-31T18:57:51.012Z,6.50
2018-12-31T19:00:20.534Z,6.50
2018-12-31T19:02:49.321Z,6.50
2018-12-31T19:05:18.519Z,6.50
2018-12-31T19:07:47.696Z,6.40
2018-12-31T19:10:16.881Z,6.40
2018-12-31T19:12:46.083Z,6.40
2018-12-31T19:15:14.895Z,6.30
2018-12-31T19:17:43.702Z,6.30
2018-12-31T19:20:12.912Z,6.30
2018-12-31T19:22:41.993Z,6.30
2018-12-31T19:25:11.355Z,6.30
2018-12-31T19:27:40.244Z,6.20
2018-12-31T19:30:09.717Z,6.20
2018-12-31T19:32:38.501Z,6.20
2018-12-31T19:35:07.367Z,6.20
2018-12-31T19:37:36.153Z,6.20
2018-12-31T19:40:05.441Z,6.20
2018-12-31T19:42:34.593Z,6.20
2018-12-31T19:45:03.471Z,6.20
2018-12-31T19:47:32.345Z,6.20
2018-12-31T19:50:01.448Z,6.20
2018-12-31T19:52:30.533Z,6.20
2018-12-31T19:54:59.322Z,6.20
2018-12-31T19:57:28.438Z,6.20
2018-12-31T19:59:57.263Z,6.20
2018-12-31T20:02:26.436Z,6.20
2018-12-31T20:04:55.397Z,6.20
2018-12-31T20:07:24.452Z,6.10
2018-12-31T20:09:53.256Z,6.10
2018-12-31T20:12:22.068Z,6.10
2018-12-31T20:14:51.309Z,6.10
2018-12-31T20:17:20.147Z,6.00
2018-12-31T20:19:48.924Z,6.00
2018-12-31T20:22:17.757Z,6.00
2018-12-31T20:24:46.910Z,6.00
2018-12-31T20:27:15.996Z,6.00
2018-12-31T20:29:45.056Z,6.00
2018-12-31T20:32:14.632Z,6.00
2018-12-31T20:34:43.436Z,6.00
2018-12-31T20:37:12.503Z,5.90
2018-12-31T20:39:41.785Z,5.90
2018-12-31T20:42:10.893Z,5.90
2018-12-31T20:44:40.585Z,5.80
2018-12-31T20:47:09.393Z,5.80
2018-12-31T20:49:38.244Z,5.80
2018-12-31T20:52:07.811Z,5.70
2018-12-31T20:54:37.361Z,5.70
2018-12-31T20:57:06.168Z,5.70
2018-12-31T20:59:34.938Z,5.70
2018-12-31T21:02:03.829Z,5.60
2018-12-31T21:04:32.606Z,5.60
2018-12-31T21:07:01.739Z,5.60
2018-12-31T21:09:30.594Z,5.60
2018-12-31T21:11:59.404Z,5.60
2018-12-31T21:14:28.560Z,5.60
2018-12-31T21:16:57.390Z,5.60
2018-12-31T21:19:26.305Z,5.50
2018-12-31T21:21:55.114Z,5.50
2018-12-31T21:24:24.649Z,5.50
2018-12-31T21:26:53.450Z,5.50
2018-12-31T21:29:22.610Z,5.50
2018-12-31T21:31:51.417Z,5.40
2018-12-31T21:34:20.562Z,5.50
2018-12-31T21:36:49.459Z,5.50
2018-12-31T21:39:18.249Z,5.50
2018-12-31T21:41:47.091Z,5.50
2018-12-31T21:44:16.145Z,5.50
2018-12-31T21:46:45.890Z,5.50
2018-12-31T21:49:15.569Z,5.40
2018-12-31T21:51:44.591Z,5.40
2018-12-31T21:54:13.770Z,5.40
2018-12-31T21:56:43.185Z,5.40
2018-12-31T21:59:11.965Z,5.40
2018-12-31T22:01:40.842Z,5.40
2018-12-31T22:04:10.029Z,5.40
2018-12-31T22:06:39.275Z,5.40
2018-12-31T22:09:09.462Z,5.40
2018-12-31T22:11:38.891Z,5.40
2018-12-31T22:14:07.828Z,5.40
2018-12-31T22:16:37.248Z,5.40
2018-12-31T22:19:06.364Z,5.40
2018-12-31T22:21:35.929Z,5.40
2018-12-31T22:24:05.234Z,5.40
2018-12-31T22:26:34.386Z,5.40
2018-12-31T22:29:03.203Z,5.40
2018-12-31T22:31:32.268Z,5.40
2018-12-31T22:34:01.665Z,5.40
2018-12-31T22:36:31.170Z,5.40
2018-12-31T22:39:00.347Z,5.40
2018-12-31T22:41:29.506Z,5.40
2018-12-31T22:43:58.686Z,5.40
2018-12-31T22:46:27.877Z,5.40
2018-12-31T22:48:57.409Z,5.40
2018-12-31T22:51:26.745Z,5.40
2018-12-31T22:53:56.937Z,5.30
2018-12-31T22:56:26.004Z,5.40
2018-12-31T22:58:56.576Z,5.40
2018-12-31T23:01:26.447Z,5.50
2018-12-31T23:03:55.580Z,5.50
2018-12-31T23:06:25.117Z,5.50
2018-12-31T23:08:54.501Z,5.50
2018-12-31T23:11:23.268Z,5.50
2018-12-31T23:13:52.164Z,5.50
2018-12-31T23:16:24.158Z,5.40
2018-12-31T23:18:53.133Z,5.40
2018-12-31T23:21:22.433Z,5.40
2018-12-31T23:23:51.663Z,5.40
2018-12-31T23:26:21.046Z,5.40
2018-12-31T23:28:52.752Z,5.40
2018-12-31T23:31:22.191Z,5.40
2018-12-31T23:33:55.133Z,5.40
2018-12-31T23:36:24.239Z,5.30
2018-12-31T23:38:54.010Z,5.30
2018-12-31T23:41:23.309Z,5.30
2018-12-31T23:43:52.085Z,5.30
2018-12-31T23:46:21.564Z,5.30
2018-12-31T23:48:50.482Z,5.30
2018-12-31T23:51:19.471Z,5.30
2018-12-31T23:53:48.473Z,5.20
2018-12-31T23:56:17.439Z,5.20
2018-12-31T23:58:46.237Z,5.20
